East Johnson, Vermont
Current Conditions -  °F | °C
As of 7:08 AM on Friday 21 Nov 2014 (Local Time) from KBTV Reporting Station
Overcast Overcast  
Wind Chill: 14°   Ceiling: 3500
Heat Index: 25°   Visibility: 10mi
Dew Point: 13°   Wind: 12mph
Humidity: 60%   Direction: 300°WNW
Pressure: 30.05"   Gusts: NA
Location:  44.6472°N, 72.6854°W
Report Text: KBTV 211208Z 30010KT 10SM SCT029 OVC035 M04/M11 A3005 RMK AO2 T10391106
Loading
Personal Weather Stations






























Interactive Weather Map New forecast layout! Learn more

10-Day Weather Forecast

Advertisements
Track Severe Weather on mobile